createdAt,value
2023-08-07T00:01:25.980Z,2.95
2023-08-07T00:03:53.539Z,2.53
2023-08-07T00:06:20.926Z,2.90
2023-08-07T00:08:48.273Z,2.30
2023-08-07T00:11:15.676Z,2.15
2023-08-07T00:13:43.049Z,2.15
2023-08-07T00:16:11.624Z,1.85
2023-08-07T00:18:38.931Z,2.20
2023-08-07T00:21:06.283Z,2.22
2023-08-07T00:23:33.663Z,2.58
2023-08-07T00:26:01.137Z,2.08
2023-08-07T00:28:29.383Z,2.25
2023-08-07T00:30:56.740Z,1.90
2023-08-07T00:33:24.086Z,1.67
2023-08-07T00:35:51.313Z,1.92
2023-08-07T00:38:18.524Z,1.92
2023-08-07T00:40:45.878Z,1.75
2023-08-07T00:43:13.065Z,1.80
2023-08-07T00:45:43.829Z,1.67
2023-08-07T00:48:11.424Z,1.67
2023-08-07T00:50:47.277Z,2.10
2023-08-07T00:53:15.395Z,2.00
2023-08-07T00:55:43.835Z,2.03
2023-08-07T00:58:11.243Z,2.17
2023-08-07T01:00:38.879Z,1.50
2023-08-07T01:03:09.467Z,1.50
2023-08-07T01:05:36.966Z,1.23
2023-08-07T01:08:05.371Z,1.40
2023-08-07T01:10:32.619Z,2.13
2023-08-07T01:13:04.512Z,1.70
2023-08-07T01:17:59.927Z,1.35
2023-08-07T01:20:27.385Z,1.50
2023-08-07T01:22:54.695Z,1.70
2023-08-07T01:25:21.983Z,1.33
2023-08-07T01:27:55.857Z,2.15
2023-08-07T01:30:49.249Z,1.70
2023-08-07T01:33:26.087Z,2.13
2023-08-07T01:35:54.974Z,1.67
2023-08-07T01:38:23.384Z,1.40
2023-08-07T01:40:51.241Z,1.45
2023-08-07T01:43:20.214Z,1.45
2023-08-07T01:45:47.578Z,1.63
2023-08-07T01:48:14.955Z,1.60
2023-08-07T01:50:42.323Z,1.42
2023-08-07T01:53:09.658Z,1.02
2023-08-07T01:55:36.989Z,1.50
2023-08-07T01:58:04.250Z,1.67
2023-08-07T02:00:32.649Z,1.90
2023-08-07T02:03:00.126Z,1.35
2023-08-07T02:05:27.419Z,1.40
2023-08-07T02:07:57.707Z,1.40
2023-08-07T02:10:25.305Z,1.55
2023-08-07T02:12:52.728Z,1.65
2023-08-07T02:15:20.060Z,1.20
2023-08-07T02:17:48.726Z,1.10
2023-08-07T02:20:16.157Z,1.25
2023-08-07T02:22:43.521Z,0.98
2023-08-07T02:25:10.970Z,0.90
2023-08-07T02:27:38.496Z,1.45
2023-08-07T02:30:06.631Z,0.95
2023-08-07T02:32:34.088Z,1.00
2023-08-07T02:35:01.681Z,0.90
2023-08-07T02:37:29.109Z,0.70
2023-08-07T02:39:56.362Z,0.93
2023-08-07T02:42:23.743Z,1.10
2023-08-07T02:44:51.005Z,0.82
2023-08-07T02:47:18.268Z,0.88
2023-08-07T02:49:45.537Z,0.80
2023-08-07T02:52:12.846Z,0.50
2023-08-07T02:54:40.104Z,0.70
2023-08-07T02:57:07.319Z,0.70
2023-08-07T02:59:34.575Z,0.47
2023-08-07T03:02:01.999Z,0.70
2023-08-07T03:04:29.298Z,0.57
2023-08-07T03:06:56.895Z,0.77
2023-08-07T03:09:24.491Z,0.60
2023-08-07T03:11:51.914Z,0.75
2023-08-07T03:14:19.200Z,1.00
2023-08-07T03:16:47.308Z,0.70
2023-08-07T03:19:14.557Z,1.35
2023-08-07T03:21:41.981Z,1.33
2023-08-07T03:24:11.906Z,1.15
2023-08-07T03:26:40.355Z,1.00
2023-08-07T03:29:07.677Z,0.82
2023-08-07T03:31:34.995Z,0.80
2023-08-07T03:34:02.573Z,0.82
2023-08-07T03:36:29.815Z,0.88
2023-08-07T03:38:57.039Z,1.23
2023-08-07T03:41:24.332Z,1.48
2023-08-07T03:43:51.564Z,1.50
2023-08-07T03:46:18.885Z,0.88
2023-08-07T03:48:46.731Z,1.15
2023-08-07T03:51:15.885Z,0.80
2023-08-07T03:53:43.189Z,1.45
2023-08-07T03:56:10.476Z,1.25
2023-08-07T03:58:37.989Z,1.25
2023-08-07T04:01:05.298Z,1.35
2023-08-07T04:03:32.938Z,1.73
2023-08-07T04:06:01.713Z,1.20
2023-08-07T04:08:29.316Z,1.20
2023-08-07T04:11:15.063Z,1.17
2023-08-07T04:13:42.418Z,1.10
2023-08-07T04:16:09.765Z,0.70
2023-08-07T04:18:37.073Z,1.20
2023-08-07T04:21:04.561Z,1.08
2023-08-07T04:23:32.717Z,0.60
2023-08-07T04:26:01.514Z,0.70
2023-08-07T04:28:31.986Z,0.85
2023-08-07T04:30:59.354Z,1.15
2023-08-07T04:33:26.654Z,0.82
2023-08-07T04:35:54.109Z,0.93
2023-08-07T04:38:21.578Z,1.17
2023-08-07T04:40:49.324Z,0.95
2023-08-07T04:43:17.290Z,0.70
2023-08-07T04:45:46.432Z,1.33
2023-08-07T04:48:14.606Z,1.30
2023-08-07T04:50:42.181Z,1.30
2023-08-07T04:53:09.896Z,1.40
2023-08-07T04:55:37.493Z,1.55
2023-08-07T04:58:04.935Z,1.10
2023-08-07T05:00:32.367Z,1.08
2023-08-07T05:02:59.881Z,1.00
2023-08-07T05:05:27.346Z,1.48
2023-08-07T05:07:56.756Z,1.42
2023-08-07T05:10:24.186Z,1.50
2023-08-07T05:12:56.868Z,1.98
2023-08-07T05:15:24.976Z,1.58
2023-08-07T05:17:52.483Z,1.90
2023-08-07T05:20:20.130Z,2.05
2023-08-07T05:22:47.831Z,1.85
2023-08-07T05:25:18.272Z,1.52
2023-08-07T05:27:46.687Z,1.25
2023-08-07T05:30:14.179Z,2.25
2023-08-07T05:32:41.618Z,1.13
2023-08-07T05:35:10.091Z,1.63
2023-08-07T05:37:37.609Z,1.48
2023-08-07T05:40:05.425Z,1.38
2023-08-07T05:42:32.713Z,1.50
2023-08-07T05:45:00.340Z,1.52
2023-08-07T05:47:27.655Z,1.33
2023-08-07T05:49:54.953Z,1.23
2023-08-07T05:52:22.322Z,1.48
2023-08-07T05:54:49.575Z,1.55
2023-08-07T05:57:17.269Z,1.23
2023-08-07T05:59:44.797Z,1.52
2023-08-07T06:02:12.917Z,1.85
2023-08-07T06:04:42.058Z,1.83
2023-08-07T06:07:09.468Z,1.63
2023-08-07T06:09:37.453Z,1.73
2023-08-07T06:12:05.032Z,2.13
2023-08-07T06:14:32.334Z,2.10
2023-08-07T06:17:01.655Z,2.40
2023-08-07T06:19:32.684Z,1.73
2023-08-07T06:22:00.952Z,1.40
2023-08-07T06:24:28.781Z,0.90
2023-08-07T06:26:56.094Z,1.30
2023-08-07T06:29:23.433Z,1.30
2023-08-07T06:31:50.755Z,1.75
2023-08-07T06:34:18.077Z,1.63
2023-08-07T06:36:45.424Z,1.60
2023-08-07T06:39:12.780Z,1.38
2023-08-07T06:41:40.713Z,2.22
2023-08-07T06:44:08.022Z,1.52
2023-08-07T06:46:35.325Z,1.23
2023-08-07T06:49:02.683Z,1.63
2023-08-07T06:51:30.030Z,1.08
2023-08-07T06:53:57.340Z,1.20
2023-08-07T06:56:24.628Z,1.00
2023-08-07T06:58:51.920Z,1.27
2023-08-07T07:01:19.338Z,1.30
2023-08-07T07:03:53.489Z,1.45
2023-08-07T07:06:22.190Z,1.25
2023-08-07T07:08:49.456Z,1.17
2023-08-07T07:11:16.883Z,1.58
2023-08-07T07:13:44.257Z,1.08
2023-08-07T07:16:13.104Z,1.20
2023-08-07T07:18:41.819Z,1.38
2023-08-07T07:21:09.175Z,0.70
2023-08-07T07:23:38.900Z,0.93
2023-08-07T07:26:06.318Z,0.95
2023-08-07T07:28:37.317Z,0.98
2023-08-07T07:31:05.261Z,0.80
2023-08-07T07:33:33.047Z,1.10
2023-08-07T07:36:00.430Z,0.98
2023-08-07T07:38:27.770Z,0.70
2023-08-07T07:40:57.828Z,0.80
2023-08-07T07:43:25.227Z,0.98
2023-08-07T07:45:52.467Z,1.00
2023-08-07T07:48:19.873Z,0.95
2023-08-07T07:50:47.124Z,0.90
2023-08-07T07:53:14.719Z,1.00
2023-08-07T07:55:42.335Z,0.80
2023-08-07T07:58:09.702Z,0.75
2023-08-07T08:00:38.532Z,1.02
2023-08-07T08:03:05.884Z,1.10
2023-08-07T08:05:33.841Z,0.70
2023-08-07T08:08:01.134Z,0.80
2023-08-07T08:10:28.746Z,0.70
2023-08-07T08:12:59.244Z,0.77
2023-08-07T08:15:26.602Z,1.13
2023-08-07T08:17:54.273Z,0.85
2023-08-07T08:20:21.692Z,1.00
2023-08-07T08:22:50.912Z,0.90
2023-08-07T08:25:18.990Z,0.70
2023-08-07T08:27:46.974Z,0.90
2023-08-07T08:30:14.377Z,0.95
2023-08-07T08:32:41.891Z,0.80
2023-08-07T08:35:09.482Z,0.70
2023-08-07T08:37:36.982Z,0.77
2023-08-07T08:40:04.539Z,1.30
2023-08-07T08:42:31.844Z,1.10
2023-08-07T08:45:03.995Z,0.70
2023-08-07T08:47:33.127Z,0.90
2023-08-07T08:50:04.812Z,1.00
2023-08-07T08:52:33.695Z,0.75
2023-08-07T08:55:01.305Z,1.00
2023-08-07T08:57:28.961Z,1.35
2023-08-07T08:59:57.229Z,0.98
2023-08-07T09:02:24.701Z,1.20
2023-08-07T09:04:52.042Z,0.95
2023-08-07T09:07:21.851Z,1.30
2023-08-07T09:09:49.476Z,1.00
2023-08-07T09:12:22.791Z,1.20
2023-08-07T09:14:56.562Z,1.50
2023-08-07T09:17:30.604Z,1.00
2023-08-07T09:19:57.929Z,0.70
2023-08-07T09:22:25.524Z,1.15
2023-08-07T09:24:53.393Z,1.50
2023-08-07T09:27:20.764Z,1.08
2023-08-07T09:29:48.406Z,0.93
2023-08-07T09:32:16.111Z,0.98
2023-08-07T09:34:43.997Z,1.10
2023-08-07T09:37:11.314Z,1.20
2023-08-07T09:39:39.086Z,1.00
2023-08-07T09:42:06.434Z,0.75
2023-08-07T09:44:37.572Z,0.77
2023-08-07T09:47:15.236Z,0.90
2023-08-07T09:49:42.751Z,0.73
2023-08-07T09:52:11.225Z,0.75
2023-08-07T09:54:39.020Z,0.50
2023-08-07T09:57:06.817Z,1.40
2023-08-07T09:59:34.534Z,0.70
2023-08-07T10:02:03.433Z,1.00
2023-08-07T10:04:31.405Z,0.95
2023-08-07T10:06:59.695Z,1.13
2023-08-07T10:09:28.710Z,1.20
2023-08-07T10:11:57.746Z,1.05
2023-08-07T10:14:25.379Z,1.02
2023-08-07T10:16:52.744Z,0.70
2023-08-07T10:19:20.063Z,0.82
2023-08-07T10:21:47.441Z,0.75
2023-08-07T10:24:15.733Z,0.90
2023-08-07T10:26:45.035Z,0.70
2023-08-07T10:29:13.996Z,0.88
2023-08-07T10:31:46.223Z,1.00
2023-08-07T10:34:13.723Z,1.02
2023-08-07T10:36:41.951Z,0.80
2023-08-07T10:39:09.868Z,1.08
2023-08-07T10:41:41.254Z,1.00
2023-08-07T10:44:19.476Z,0.80
2023-08-07T10:46:50.862Z,0.88
2023-08-07T10:49:38.056Z,0.63
2023-08-07T10:52:06.048Z,0.70
2023-08-07T10:54:43.861Z,1.10
2023-08-07T10:57:14.915Z,0.93
2023-08-07T10:59:57.460Z,0.95
2023-08-07T11:02:28.437Z,1.00
2023-08-07T11:04:56.463Z,0.77
2023-08-07T11:07:27.468Z,0.90
2023-08-07T11:09:55.465Z,0.70
2023-08-07T11:12:22.881Z,0.95
2023-08-07T11:14:50.198Z,1.05
2023-08-07T11:17:18.513Z,1.00
2023-08-07T11:19:48.630Z,0.85
2023-08-07T11:22:20.329Z,1.45
2023-08-07T11:24:51.265Z,0.93
2023-08-07T11:27:18.548Z,1.00
2023-08-07T11:29:53.375Z,1.00
2023-08-07T11:32:23.293Z,0.60
2023-08-07T11:34:55.868Z,0.82
2023-08-07T11:37:23.288Z,1.40
2023-08-07T11:39:50.867Z,1.17
2023-08-07T11:42:18.204Z,0.73
2023-08-07T11:44:45.518Z,0.65
2023-08-07T11:47:12.773Z,1.02
2023-08-07T11:49:40.281Z,0.70
2023-08-07T11:52:07.931Z,0.95
2023-08-07T11:54:35.263Z,0.80
2023-08-07T11:57:02.669Z,0.75
2023-08-07T11:59:31.461Z,0.68
2023-08-07T12:01:58.712Z,0.80
2023-08-07T12:04:26.150Z,0.60
2023-08-07T12:06:57.501Z,0.80
2023-08-07T12:09:27.201Z,0.88
2023-08-07T12:11:58.644Z,0.70
2023-08-07T12:16:53.482Z,0.77
2023-08-07T12:19:20.973Z,0.52
2023-08-07T12:21:48.414Z,1.00
2023-08-07T12:24:15.886Z,0.70
2023-08-07T12:26:43.485Z,0.68
2023-08-07T12:29:11.120Z,0.70
2023-08-07T12:31:41.860Z,0.95
2023-08-07T12:39:07.828Z,0.80
2023-08-07T12:44:06.723Z,0.68
2023-08-07T12:46:36.119Z,0.80
2023-08-07T12:49:04.981Z,0.68
2023-08-07T12:51:32.579Z,0.77
2023-08-07T12:54:02.937Z,0.60
2023-08-07T12:56:30.565Z,0.57
2023-08-07T12:59:00.189Z,0.70
2023-08-07T13:01:28.078Z,0.50
2023-08-07T13:03:55.788Z,1.48
2023-08-07T13:06:23.676Z,0.85
2023-08-07T13:08:50.988Z,0.60
2023-08-07T13:11:18.360Z,1.48
2023-08-07T13:13:45.759Z,0.80
2023-08-07T13:16:13.234Z,0.93
2023-08-07T13:18:40.534Z,0.98
2023-08-07T13:21:08.018Z,1.20
2023-08-07T13:23:35.272Z,1.10
2023-08-07T13:26:03.142Z,0.73
2023-08-07T13:28:30.508Z,0.80
2023-08-07T13:30:59.564Z,0.50
2023-08-07T13:33:26.917Z,0.73
2023-08-07T13:35:54.214Z,0.77
2023-08-07T13:38:21.993Z,1.05
2023-08-07T13:40:49.329Z,0.80
2023-08-07T13:43:16.614Z,1.20
2023-08-07T13:45:43.936Z,1.50
2023-08-07T13:48:11.520Z,0.90
2023-08-07T13:50:39.537Z,2.35
2023-08-07T13:53:14.348Z,1.15
2023-08-07T13:55:42.695Z,1.20
2023-08-07T13:58:11.139Z,1.40
2023-08-07T14:00:39.938Z,1.23
2023-08-07T14:03:07.519Z,1.60
2023-08-07T14:05:35.116Z,1.20
2023-08-07T14:08:03.683Z,1.38
2023-08-07T14:10:31.108Z,1.00
2023-08-07T14:12:58.381Z,1.20
2023-08-07T14:15:25.945Z,1.27
2023-08-07T14:17:53.438Z,1.23
2023-08-07T14:20:20.989Z,1.38
2023-08-07T14:22:48.327Z,1.33
2023-08-07T14:25:15.721Z,0.93
2023-08-07T14:27:44.101Z,1.10
2023-08-07T14:30:11.816Z,1.45
2023-08-07T14:32:39.087Z,1.20
2023-08-07T14:35:06.699Z,1.08
2023-08-07T14:37:34.148Z,1.38
2023-08-07T14:40:01.427Z,1.15
2023-08-07T14:42:43.951Z,0.67
2023-08-07T14:45:12.630Z,1.37
2023-08-07T14:47:40.134Z,1.35
2023-08-07T14:50:07.586Z,0.88
2023-08-07T14:52:34.922Z,1.13
2023-08-07T14:55:02.689Z,1.15
2023-08-07T14:57:30.067Z,1.00
2023-08-07T14:59:57.553Z,1.30
2023-08-07T15:02:24.869Z,1.08
2023-08-07T15:04:52.527Z,1.27
2023-08-07T15:07:20.164Z,1.13
2023-08-07T15:09:51.297Z,1.08
2023-08-07T15:12:18.834Z,1.33
2023-08-07T15:14:46.576Z,1.13
2023-08-07T15:17:13.924Z,1.10
2023-08-07T15:19:41.221Z,1.15
2023-08-07T15:22:08.746Z,1.15
2023-08-07T15:24:36.006Z,0.77
2023-08-07T15:27:03.387Z,0.90
2023-08-07T15:29:30.765Z,1.05
2023-08-07T15:32:00.433Z,1.00
2023-08-07T15:34:28.108Z,1.20
2023-08-07T15:36:55.762Z,1.00
2023-08-07T15:39:23.295Z,0.55
2023-08-07T15:41:50.728Z,0.77
2023-08-07T15:44:17.991Z,0.82
2023-08-07T15:46:45.359Z,1.10
2023-08-07T15:49:12.727Z,0.93
2023-08-07T15:51:40.046Z,0.60
2023-08-07T15:54:07.331Z,0.63
2023-08-07T15:56:34.695Z,0.93
2023-08-07T15:59:04.116Z,0.70
2023-08-07T16:01:31.524Z,1.10
2023-08-07T16:03:59.710Z,0.75
2023-08-07T16:06:27.970Z,0.80
2023-08-07T16:08:57.433Z,0.63
2023-08-07T16:11:24.994Z,0.70
2023-08-07T16:13:53.677Z,0.98
2023-08-07T16:16:21.194Z,0.73
2023-08-07T16:18:48.900Z,1.00
2023-08-07T16:21:16.882Z,0.55
2023-08-07T16:23:44.114Z,0.73
2023-08-07T16:26:13.149Z,1.13
2023-08-07T16:28:40.399Z,1.02
2023-08-07T16:31:07.816Z,0.60
2023-08-07T16:33:36.441Z,0.77
2023-08-07T16:36:04.077Z,0.85
2023-08-07T16:38:31.359Z,0.90
2023-08-07T16:40:58.600Z,0.65
2023-08-07T16:43:27.458Z,0.95
2023-08-07T16:45:55.972Z,0.85
2023-08-07T16:48:23.609Z,0.80
2023-08-07T16:51:13.084Z,0.85
2023-08-07T16:53:40.344Z,0.50
2023-08-07T16:56:08.412Z,0.60
2023-08-07T16:58:35.783Z,0.80
2023-08-07T17:01:03.630Z,0.55
2023-08-07T17:03:32.356Z,0.50
2023-08-07T17:06:02.373Z,0.60
2023-08-07T17:08:29.637Z,0.90
2023-08-07T17:10:57.124Z,0.80
2023-08-07T17:13:24.746Z,0.68
2023-08-07T17:15:52.083Z,0.47
2023-08-07T17:18:19.450Z,0.68
2023-08-07T17:20:46.994Z,0.47
2023-08-07T17:23:14.386Z,0.50
2023-08-07T17:25:42.560Z,0.60
2023-08-07T17:28:10.340Z,0.82
2023-08-07T17:30:37.691Z,0.65
2023-08-07T17:33:05.426Z,0.90
2023-08-07T17:35:33.117Z,0.73
2023-08-07T17:38:00.517Z,0.65
2023-08-07T17:40:27.861Z,0.80
2023-08-07T17:42:55.315Z,0.93
2023-08-07T17:45:23.016Z,0.70
2023-08-07T17:47:50.410Z,0.50
2023-08-07T17:50:18.075Z,0.60
2023-08-07T17:52:45.657Z,0.95
2023-08-07T17:55:13.753Z,0.60
2023-08-07T17:57:44.038Z,0.52
2023-08-07T18:00:11.874Z,0.85
2023-08-07T18:02:39.237Z,0.50
2023-08-07T18:05:07.188Z,0.52
2023-08-07T18:07:35.147Z,0.70
2023-08-07T18:10:02.930Z,0.60
2023-08-07T18:12:31.707Z,0.75
2023-08-07T18:14:59.378Z,0.93
2023-08-07T18:17:26.813Z,0.57
2023-08-07T18:19:54.255Z,0.60
2023-08-07T18:22:21.782Z,0.60
2023-08-07T18:24:49.448Z,0.68
2023-08-07T18:27:23.435Z,0.57
2023-08-07T18:29:50.928Z,0.98
2023-08-07T18:32:18.099Z,0.95
2023-08-07T18:34:45.367Z,0.47
2023-08-07T18:37:13.252Z,0.77
2023-08-07T18:39:40.600Z,0.80
2023-08-07T18:42:08.236Z,0.90
2023-08-07T18:44:35.738Z,0.60
2023-08-07T18:47:03.612Z,0.63
2023-08-07T18:49:31.061Z,0.70
2023-08-07T18:51:58.417Z,0.75
2023-08-07T18:54:25.743Z,0.77
2023-08-07T18:56:54.594Z,0.43
2023-08-07T18:59:22.415Z,0.70
2023-08-07T19:01:50.328Z,0.80
2023-08-07T19:04:17.846Z,0.70
2023-08-07T19:06:46.019Z,0.65
2023-08-07T19:09:13.798Z,0.75
2023-08-07T19:11:41.259Z,0.70
2023-08-07T19:14:11.305Z,1.15
2023-08-07T19:16:40.131Z,0.88
2023-08-07T19:19:07.573Z,0.60
2023-08-07T19:21:35.017Z,1.05
2023-08-07T19:24:02.440Z,0.60
2023-08-07T19:26:30.379Z,0.40
2023-08-07T19:28:57.819Z,0.73
2023-08-07T19:31:25.285Z,0.60
2023-08-07T19:33:52.731Z,0.88
2023-08-07T19:36:21.949Z,0.60
2023-08-07T19:38:49.904Z,1.20
2023-08-07T19:41:17.189Z,0.85
2023-08-07T19:43:45.237Z,0.60
2023-08-07T19:46:12.843Z,0.60
2023-08-07T19:48:40.371Z,1.40
2023-08-07T19:51:07.828Z,0.57
2023-08-07T19:53:35.945Z,0.70
2023-08-07T19:56:04.525Z,1.15
2023-08-07T19:58:31.974Z,1.20
2023-08-07T20:01:00.483Z,1.25
2023-08-07T20:03:27.851Z,0.90
2023-08-07T20:05:56.579Z,1.10
2023-08-07T20:08:23.777Z,0.80
2023-08-07T20:10:51.130Z,0.80
2023-08-07T20:13:18.387Z,0.85
2023-08-07T20:15:45.699Z,0.90
2023-08-07T20:18:13.012Z,0.90
2023-08-07T20:20:40.240Z,1.00
2023-08-07T20:23:08.055Z,1.00
2023-08-07T20:25:35.344Z,1.23
2023-08-07T20:28:02.851Z,0.88
2023-08-07T20:30:30.410Z,1.08
2023-08-07T20:32:57.959Z,1.35
2023-08-07T20:35:25.546Z,0.70
2023-08-07T20:37:52.787Z,1.38
2023-08-07T20:40:21.316Z,0.90
2023-08-07T20:42:48.571Z,1.25
2023-08-07T20:45:16.218Z,0.90
2023-08-07T20:47:43.502Z,1.48
2023-08-07T20:50:11.135Z,1.65
2023-08-07T20:52:38.662Z,1.30
2023-08-07T20:55:07.132Z,1.15
2023-08-07T20:57:36.129Z,1.83
2023-08-07T21:00:05.019Z,1.48
2023-08-07T21:02:32.250Z,1.55
2023-08-07T21:05:00.561Z,1.30
2023-08-07T21:07:27.993Z,1.30
2023-08-07T21:09:55.236Z,1.98
2023-08-07T21:12:22.609Z,1.33
2023-08-07T21:14:49.970Z,1.60
2023-08-07T21:17:17.128Z,1.13
2023-08-07T21:19:44.451Z,1.38
2023-08-07T21:22:11.835Z,1.38
2023-08-07T21:24:40.524Z,1.10
2023-08-07T21:27:07.990Z,1.40
2023-08-07T21:29:35.264Z,1.42
2023-08-07T21:32:03.245Z,1.60
2023-08-07T21:34:30.698Z,1.38
2023-08-07T21:36:58.510Z,1.60
2023-08-07T21:39:25.756Z,1.20
2023-08-07T21:41:54.823Z,1.35
2023-08-07T21:44:22.215Z,1.25
2023-08-07T21:46:49.971Z,1.83
2023-08-07T21:49:17.417Z,1.17
2023-08-07T21:51:44.696Z,1.52
2023-08-07T21:54:12.554Z,1.95
2023-08-07T21:56:43.613Z,1.50
2023-08-07T21:59:11.369Z,2.00
2023-08-07T22:01:39.494Z,1.60
2023-08-07T22:04:06.765Z,1.85
2023-08-07T22:06:34.004Z,1.73
2023-08-07T22:09:01.130Z,2.00
2023-08-07T22:11:29.852Z,2.05
2023-08-07T22:14:00.359Z,2.00
2023-08-07T22:16:27.719Z,2.20
2023-08-07T22:18:54.958Z,2.05
2023-08-07T22:21:22.264Z,1.92
2023-08-07T22:23:49.454Z,1.60
2023-08-07T22:26:16.702Z,1.88
2023-08-07T22:28:43.926Z,1.77
2023-08-07T22:31:11.086Z,1.80
2023-08-07T22:33:38.426Z,1.90
2023-08-07T22:36:07.932Z,1.70
2023-08-07T22:38:35.346Z,1.80
2023-08-07T22:41:02.477Z,1.58
2023-08-07T22:43:29.631Z,1.40
2023-08-07T22:45:56.860Z,1.73
2023-08-07T22:48:24.016Z,1.60
2023-08-07T22:50:51.327Z,1.42
2023-08-07T22:53:18.481Z,1.70
2023-08-07T22:55:47.984Z,1.67
2023-08-07T22:58:15.102Z,1.85
2023-08-07T23:00:42.451Z,1.63
2023-08-07T23:03:09.661Z,1.75
2023-08-07T23:05:36.878Z,1.75
2023-08-07T23:08:04.211Z,1.63
2023-08-07T23:10:31.361Z,1.80
2023-08-07T23:12:58.970Z,1.50
2023-08-07T23:15:26.142Z,1.33
2023-08-07T23:17:53.327Z,1.45
2023-08-07T23:20:20.618Z,1.73
2023-08-07T23:22:47.796Z,2.47
2023-08-07T23:25:14.956Z,1.27
2023-08-07T23:27:42.221Z,1.45
2023-08-07T23:30:10.126Z,1.40
2023-08-07T23:32:37.351Z,1.70
2023-08-07T23:35:04.677Z,1.55
2023-08-07T23:37:31.850Z,1.70
2023-08-07T23:39:58.958Z,1.42
2023-08-07T23:42:26.107Z,2.00
2023-08-07T23:44:53.234Z,1.88
2023-08-07T23:47:20.410Z,1.77
2023-08-07T23:49:47.607Z,2.10
2023-08-07T23:52:14.700Z,1.50
2023-08-07T23:54:41.855Z,1.65
2023-08-07T23:57:09.566Z,1.80
2023-08-07T23:59:36.835Z,1.77
